createdAt,value
2022-12-02T00:02:32.947Z,1.87
2022-12-02T00:05:29.026Z,1.80
2022-12-02T00:07:59.169Z,1.77
2022-12-02T00:10:32.589Z,1.80
2022-12-02T00:13:36.986Z,1.83
2022-12-02T00:16:05.026Z,1.88
2022-12-02T00:18:32.087Z,1.89
2022-12-02T00:20:59.007Z,1.89
2022-12-02T00:23:26.072Z,1.91
2022-12-02T00:25:54.325Z,1.90
2022-12-02T00:28:21.591Z,1.94
2022-12-02T00:30:48.698Z,1.97
2022-12-02T00:33:17.752Z,1.98
2022-12-02T00:35:44.875Z,1.98
2022-12-02T00:38:12.091Z,1.94
2022-12-02T00:40:39.020Z,1.89
2022-12-02T00:43:24.335Z,1.85
2022-12-02T00:46:09.582Z,1.72
2022-12-02T00:48:37.021Z,1.49
2022-12-02T00:51:04.065Z,1.52
2022-12-02T00:53:32.978Z,1.62
2022-12-02T00:56:00.077Z,1.60
2022-12-02T00:58:27.096Z,1.55
2022-12-02T01:00:54.721Z,1.52
2022-12-02T01:03:21.818Z,1.34
2022-12-02T01:05:48.725Z,1.32
2022-12-02T01:08:15.720Z,1.33
2022-12-02T01:10:42.596Z,1.37
2022-12-02T01:13:09.545Z,1.38
2022-12-02T01:15:36.492Z,1.40
2022-12-02T01:18:03.494Z,1.40
2022-12-02T01:20:30.523Z,1.30
2022-12-02T01:22:57.749Z,1.18
2022-12-02T01:25:24.757Z,1.23
2022-12-02T01:27:51.612Z,1.29
2022-12-02T01:30:18.823Z,1.36
2022-12-02T01:32:45.789Z,1.36
2022-12-02T01:35:12.796Z,1.39
2022-12-02T01:37:39.769Z,1.43
2022-12-02T01:40:10.442Z,1.44
2022-12-02T01:42:40.086Z,1.45
2022-12-02T01:45:08.498Z,1.43
2022-12-02T01:47:36.497Z,1.44
2022-12-02T01:50:05.057Z,1.43
2022-12-02T01:52:32.119Z,1.41
2022-12-02T01:54:59.366Z,1.41
2022-12-02T01:57:30.787Z,1.37
2022-12-02T01:59:58.100Z,1.38
2022-12-02T02:02:25.027Z,1.27
2022-12-02T02:04:53.357Z,1.17
2022-12-02T02:07:20.818Z,1.08
2022-12-02T02:09:50.059Z,1.03
2022-12-02T02:12:17.094Z,0.95
2022-12-02T02:14:44.235Z,0.92
2022-12-02T02:17:11.430Z,0.93
2022-12-02T02:19:39.063Z,0.97
2022-12-02T02:22:11.854Z,0.99
2022-12-02T02:24:38.874Z,1.02
2022-12-02T02:27:05.898Z,0.92
2022-12-02T02:29:33.826Z,0.88
2022-12-02T02:32:01.985Z,0.90
2022-12-02T02:34:29.005Z,0.88
2022-12-02T02:36:56.241Z,0.85
2022-12-02T02:39:24.083Z,0.81
2022-12-02T02:41:52.335Z,0.86
2022-12-02T02:44:25.347Z,0.87
2022-12-02T02:46:53.325Z,0.85
2022-12-02T02:49:20.701Z,0.83
2022-12-02T02:51:47.969Z,0.75
2022-12-02T02:54:15.456Z,0.74
2022-12-02T02:56:42.626Z,0.76
2022-12-02T02:59:14.882Z,0.76
2022-12-02T03:01:45.192Z,0.68
2022-12-02T03:04:15.878Z,0.64
2022-12-02T03:06:43.339Z,0.73
2022-12-02T03:09:13.649Z,0.77
2022-12-02T03:11:41.334Z,0.83
2022-12-02T03:14:12.828Z,0.83
2022-12-02T03:16:42.718Z,0.83
2022-12-02T03:19:09.796Z,0.85
2022-12-02T03:21:36.994Z,0.84
2022-12-02T03:24:04.928Z,0.81
2022-12-02T03:26:33.704Z,0.80
2022-12-02T03:29:02.018Z,0.81
2022-12-02T03:31:28.984Z,0.80
2022-12-02T03:33:56.881Z,0.79
2022-12-02T03:36:24.316Z,0.82
2022-12-02T03:38:51.637Z,0.78
2022-12-02T03:41:19.158Z,0.77
2022-12-02T03:43:46.308Z,0.81
2022-12-02T03:46:13.790Z,0.82
2022-12-02T03:48:41.209Z,0.77
2022-12-02T03:51:08.427Z,0.79
2022-12-02T03:53:36.613Z,0.77
2022-12-02T03:56:07.576Z,0.69
2022-12-02T03:58:39.106Z,0.70
2022-12-02T04:01:06.381Z,0.69
2022-12-02T04:03:33.439Z,0.71
2022-12-02T04:06:00.708Z,0.73
2022-12-02T04:08:28.055Z,0.72
2022-12-02T04:10:55.064Z,0.70
2022-12-02T04:13:21.976Z,0.57
2022-12-02T04:15:48.997Z,0.44
2022-12-02T04:18:16.004Z,0.38
2022-12-02T04:20:43.011Z,0.45
2022-12-02T04:23:09.945Z,0.50
2022-12-02T04:25:37.026Z,0.46
2022-12-02T04:28:04.095Z,0.33
2022-12-02T04:30:31.201Z,0.27
2022-12-02T04:32:58.099Z,0.17
2022-12-02T04:35:25.019Z,0.19
2022-12-02T04:37:54.157Z,0.32
2022-12-02T04:40:21.066Z,0.39
2022-12-02T04:42:48.907Z,0.44
2022-12-02T04:45:16.007Z,0.52
2022-12-02T04:47:43.134Z,0.57
2022-12-02T04:50:10.667Z,0.57
2022-12-02T04:52:37.725Z,0.48
2022-12-02T04:55:05.065Z,0.37
2022-12-02T04:57:32.155Z,0.32
2022-12-02T04:59:59.568Z,0.39
2022-12-02T05:02:26.809Z,0.46
2022-12-02T05:04:54.351Z,0.54
2022-12-02T05:07:21.396Z,0.59
2022-12-02T05:09:48.481Z,0.63
2022-12-02T05:12:15.371Z,0.63
2022-12-02T05:14:42.384Z,0.66
2022-12-02T05:17:09.298Z,0.68
2022-12-02T05:19:36.247Z,0.64
2022-12-02T05:22:03.488Z,0.66
2022-12-02T05:24:30.405Z,0.71
2022-12-02T05:26:57.440Z,0.74
2022-12-02T05:29:24.631Z,0.77
2022-12-02T05:31:51.869Z,0.79
2022-12-02T05:34:18.995Z,0.77
2022-12-02T05:36:46.324Z,0.77
2022-12-02T05:39:13.383Z,0.75
2022-12-02T05:41:40.783Z,0.70
2022-12-02T05:44:39.329Z,0.36
2022-12-02T05:47:14.438Z,0.42
2022-12-02T05:49:43.369Z,0.41
2022-12-02T05:52:26.508Z,0.30
2022-12-02T05:54:58.991Z,0.34
2022-12-02T05:57:28.838Z,0.33
2022-12-02T06:00:14.817Z,0.41
2022-12-02T06:02:50.919Z,0.50
2022-12-02T06:05:36.576Z,0.57
2022-12-02T06:08:23.506Z,0.56
2022-12-02T06:11:00.115Z,0.56
2022-12-02T06:13:29.323Z,0.60
2022-12-02T06:15:58.468Z,0.56
2022-12-02T06:18:30.585Z,0.62
2022-12-02T06:21:00.315Z,0.62
2022-12-02T06:23:30.389Z,0.64
2022-12-02T06:25:57.915Z,0.63
2022-12-02T06:28:34.265Z,0.60
2022-12-02T06:31:25.106Z,0.55
2022-12-02T06:33:54.004Z,0.55
2022-12-02T06:36:22.011Z,0.50
2022-12-02T06:38:55.852Z,0.31
2022-12-02T06:41:30.655Z,0.31
2022-12-02T06:44:21.388Z,0.33
2022-12-02T06:46:48.392Z,0.35
2022-12-02T06:49:23.431Z,0.26
2022-12-02T06:51:56.910Z,0.34
2022-12-02T06:54:31.610Z,0.18
2022-12-02T06:57:02.063Z,0.20
2022-12-02T06:59:29.366Z,-0.05
2022-12-02T07:02:01.011Z,0.01
2022-12-02T07:04:36.702Z,0.15
2022-12-02T07:07:30.349Z,0.23
2022-12-02T07:10:05.664Z,0.28
2022-12-02T07:12:49.102Z,0.34
2022-12-02T07:15:26.787Z,0.36
2022-12-02T07:17:57.259Z,0.37
2022-12-02T07:20:32.808Z,0.40
2022-12-02T07:23:05.519Z,0.42
2022-12-02T07:25:57.209Z,0.41
2022-12-02T07:28:44.983Z,0.30
2022-12-02T07:31:43.704Z,0.19
2022-12-02T07:34:14.748Z,0.23
2022-12-02T07:36:48.905Z,0.22
2022-12-02T07:39:17.268Z,0.23
2022-12-02T07:41:45.243Z,0.22
2022-12-02T07:44:13.184Z,0.20
2022-12-02T07:46:40.526Z,0.20
2022-12-02T07:49:10.882Z,0.19
2022-12-02T07:51:39.464Z,0.15
2022-12-02T07:54:07.728Z,0.14
2022-12-02T07:56:34.749Z,0.12
2022-12-02T07:59:18.779Z,0.12
2022-12-02T08:01:50.725Z,0.10
2022-12-02T08:04:18.170Z,0.12
2022-12-02T08:06:45.322Z,0.15
2022-12-02T08:09:12.286Z,0.13
2022-12-02T08:11:39.229Z,0.13
2022-12-02T08:14:06.523Z,0.13
2022-12-02T08:16:33.897Z,0.16
2022-12-02T08:19:01.382Z,0.19
2022-12-02T08:21:29.318Z,0.22
2022-12-02T08:23:56.388Z,0.22
2022-12-02T08:26:23.427Z,0.24
2022-12-02T08:28:54.019Z,0.24
2022-12-02T08:31:22.335Z,0.26
2022-12-02T08:33:51.120Z,0.29
2022-12-02T08:36:18.879Z,0.30
2022-12-02T08:39:09.885Z,0.31
2022-12-02T08:41:39.164Z,0.24
2022-12-02T08:44:08.526Z,0.22
2022-12-02T08:46:38.355Z,0.23
2022-12-02T08:49:09.223Z,0.20
2022-12-02T08:51:36.418Z,0.23
2022-12-02T08:54:03.771Z,0.21
2022-12-02T08:56:34.761Z,0.27
2022-12-02T08:59:12.557Z,0.29
2022-12-02T09:01:44.908Z,0.34
2022-12-02T09:04:12.302Z,0.35
2022-12-02T09:06:39.346Z,0.30
2022-12-02T09:09:06.973Z,0.25
2022-12-02T09:11:34.332Z,0.22
2022-12-02T09:14:02.934Z,0.19
2022-12-02T09:16:30.812Z,0.18
2022-12-02T09:18:59.840Z,0.18
2022-12-02T09:21:27.319Z,0.16
2022-12-02T09:23:54.267Z,0.17
2022-12-02T09:26:21.383Z,0.18
2022-12-02T09:28:48.559Z,0.21
2022-12-02T09:31:17.550Z,0.23
2022-12-02T09:33:44.991Z,0.29
2022-12-02T09:36:13.116Z,0.31
2022-12-02T09:38:41.044Z,0.30
2022-12-02T09:41:08.451Z,0.29
2022-12-02T09:43:35.897Z,0.31
2022-12-02T09:46:05.439Z,0.31
2022-12-02T09:48:33.901Z,0.28
2022-12-02T09:51:01.681Z,0.25
2022-12-02T09:53:33.282Z,0.24
2022-12-02T09:56:01.384Z,0.28
2022-12-02T09:58:28.742Z,0.29
2022-12-02T10:00:56.030Z,0.33
2022-12-02T10:03:27.965Z,0.36
2022-12-02T10:05:55.661Z,0.39
2022-12-02T10:11:34.810Z,0.39
2022-12-02T10:14:04.014Z,0.42
2022-12-02T10:16:31.357Z,0.38
2022-12-02T10:19:01.418Z,0.41
2022-12-02T10:21:30.051Z,0.46
2022-12-02T10:24:03.606Z,0.47
2022-12-02T10:26:50.807Z,0.47
2022-12-02T10:29:31.751Z,0.46
2022-12-02T10:32:01.586Z,0.44
2022-12-02T10:34:30.572Z,0.43
2022-12-02T10:36:57.692Z,0.39
2022-12-02T10:39:38.201Z,0.33
2022-12-02T10:42:09.506Z,0.35
2022-12-02T10:44:45.723Z,0.33
2022-12-02T10:47:26.645Z,0.31
2022-12-02T10:49:56.072Z,0.32
2022-12-02T10:52:41.404Z,0.31
2022-12-02T10:55:12.062Z,0.32
2022-12-02T10:57:39.850Z,0.28
2022-12-02T11:00:17.318Z,0.29
2022-12-02T11:03:05.397Z,0.34
2022-12-02T11:05:38.448Z,0.40
2022-12-02T11:08:08.579Z,0.45
2022-12-02T11:10:38.543Z,0.41
2022-12-02T11:13:33.589Z,0.39
2022-12-02T11:16:27.526Z,0.41
2022-12-02T11:19:24.150Z,0.42
2022-12-02T11:21:54.033Z,0.42
2022-12-02T11:24:27.634Z,0.36
2022-12-02T11:27:05.207Z,0.36
2022-12-02T11:29:41.973Z,0.39
2022-12-02T11:32:27.396Z,0.44
2022-12-02T11:37:46.165Z,0.54
2022-12-02T11:40:15.861Z,0.62
2022-12-02T11:42:44.209Z,0.68
2022-12-02T11:45:33.617Z,0.68
2022-12-02T11:48:01.817Z,0.65
2022-12-02T11:50:34.686Z,0.66
2022-12-02T11:53:11.492Z,0.67
2022-12-02T11:55:46.830Z,0.69
2022-12-02T11:58:33.789Z,0.65
2022-12-02T12:01:09.425Z,0.67
2022-12-02T12:03:45.878Z,0.65
2022-12-02T12:06:22.104Z,0.66
2022-12-02T12:08:52.600Z,0.65
2022-12-02T12:11:26.913Z,0.67
2022-12-02T12:14:18.301Z,0.69
2022-12-02T12:16:51.580Z,0.67
2022-12-02T12:19:21.690Z,0.62
2022-12-02T12:21:56.156Z,0.58
2022-12-02T12:24:23.787Z,0.62
2022-12-02T12:26:59.301Z,0.61
2022-12-02T12:29:37.677Z,0.51
2022-12-02T12:32:06.307Z,0.42
2022-12-02T12:34:33.863Z,0.40
2022-12-02T12:37:01.025Z,0.40
2022-12-02T12:39:28.205Z,0.35
2022-12-02T12:42:00.719Z,0.36
2022-12-02T12:44:31.215Z,0.30
2022-12-02T12:47:00.501Z,0.31
2022-12-02T12:49:28.141Z,0.33
2022-12-02T12:51:55.349Z,0.39
2022-12-02T12:54:22.456Z,0.47
2022-12-02T12:56:49.510Z,0.45
2022-12-02T12:59:17.128Z,0.42
2022-12-02T13:01:45.094Z,0.39
2022-12-02T13:04:12.630Z,0.38
2022-12-02T13:06:42.921Z,0.35
2022-12-02T13:09:12.065Z,0.33
2022-12-02T13:11:39.592Z,0.32
2022-12-02T13:14:08.796Z,0.34
2022-12-02T13:16:36.151Z,0.36
2022-12-02T13:19:03.868Z,0.35
2022-12-02T13:21:31.069Z,0.32
2022-12-02T13:23:58.149Z,0.26
2022-12-02T13:26:25.173Z,0.26
2022-12-02T13:28:53.529Z,0.27
2022-12-02T13:31:21.272Z,0.27
2022-12-02T13:33:48.573Z,0.24
2022-12-02T13:36:15.747Z,0.26
2022-12-02T13:38:42.756Z,0.24
2022-12-02T13:41:09.891Z,0.25
2022-12-02T13:43:36.917Z,0.28
2022-12-02T13:46:04.120Z,0.30
2022-12-02T13:48:31.171Z,0.29
2022-12-02T13:50:58.149Z,0.28
2022-12-02T13:53:25.211Z,0.20
2022-12-02T13:55:52.281Z,0.18
2022-12-02T13:58:19.327Z,0.17
2022-12-02T14:00:46.549Z,0.15
2022-12-02T14:03:13.652Z,0.13
2022-12-02T14:05:40.744Z,0.12
2022-12-02T14:08:08.164Z,0.11
2022-12-02T14:10:35.365Z,0.08
2022-12-02T14:13:02.586Z,0.07
2022-12-02T14:15:29.633Z,0.02
2022-12-02T14:17:57.082Z,-0.01
2022-12-02T14:20:24.341Z,-0.07
2022-12-02T14:22:51.721Z,-0.09
2022-12-02T14:25:19.464Z,-0.12
2022-12-02T14:27:46.591Z,-0.17
2022-12-02T14:30:14.243Z,-0.24
2022-12-02T14:32:41.399Z,-0.27
2022-12-02T14:35:10.437Z,-0.30
2022-12-02T14:37:37.628Z,-0.38
2022-12-02T14:40:08.361Z,-0.38
2022-12-02T14:42:35.581Z,-0.39
2022-12-02T14:45:03.661Z,-0.43
2022-12-02T14:47:30.979Z,-0.47
2022-12-02T14:49:58.387Z,-0.50
2022-12-02T14:52:25.887Z,-0.53
2022-12-02T14:54:53.158Z,-0.55
2022-12-02T14:57:20.339Z,-0.58
2022-12-02T14:59:47.638Z,-0.59
2022-12-02T15:02:15.367Z,-0.60
2022-12-02T15:04:42.703Z,-0.65
2022-12-02T15:07:10.656Z,-0.70
2022-12-02T15:09:38.377Z,-0.87
2022-12-02T15:12:05.774Z,-0.93
2022-12-02T15:14:33.587Z,-0.95
2022-12-02T15:17:00.735Z,-0.95
2022-12-02T15:19:27.782Z,-0.89
2022-12-02T15:21:55.291Z,-0.82
2022-12-02T15:24:22.641Z,-0.83
2022-12-02T15:26:55.151Z,-0.77
2022-12-02T15:29:23.570Z,-0.74
2022-12-02T15:31:51.021Z,-0.75
2022-12-02T15:34:18.521Z,-0.77
2022-12-02T15:36:45.776Z,-0.81
2022-12-02T15:39:13.041Z,-0.88
2022-12-02T15:41:40.006Z,-0.96
2022-12-02T15:44:07.004Z,-0.98
2022-12-02T15:46:34.230Z,-1.03
2022-12-02T15:49:01.363Z,-1.05
2022-12-02T15:51:28.567Z,-1.07
2022-12-02T15:53:55.787Z,-1.08
2022-12-02T15:56:23.062Z,-1.12
2022-12-02T15:58:50.810Z,-1.08
2022-12-02T16:01:18.253Z,-1.05
2022-12-02T16:03:45.444Z,-1.03
2022-12-02T16:06:12.620Z,-0.97
2022-12-02T16:08:39.988Z,-0.91
2022-12-02T16:11:07.071Z,-0.88
2022-12-02T16:13:34.323Z,-0.82
2022-12-02T16:16:01.639Z,-0.85
2022-12-02T16:18:28.782Z,-0.88
2022-12-02T16:20:56.328Z,-0.99
2022-12-02T16:23:23.913Z,-0.98
2022-12-02T16:25:51.105Z,-0.96
2022-12-02T16:28:18.507Z,-0.93
2022-12-02T16:30:46.155Z,-0.90
2022-12-02T16:33:13.535Z,-0.90
2022-12-02T16:35:40.678Z,-0.93
2022-12-02T16:38:08.018Z,-0.93
2022-12-02T16:40:35.178Z,-0.94
2022-12-02T16:43:02.285Z,-0.96
2022-12-02T16:45:30.328Z,-0.97
2022-12-02T16:47:57.461Z,-0.96
2022-12-02T16:50:24.698Z,-0.96
2022-12-02T16:52:51.706Z,-0.96
2022-12-02T16:55:18.806Z,-0.95
2022-12-02T16:57:45.810Z,-0.95
2022-12-02T17:00:13.466Z,-0.97
2022-12-02T17:02:43.021Z,-0.98
2022-12-02T17:05:10.682Z,-1.00
2022-12-02T17:07:37.947Z,-1.04
2022-12-02T17:10:05.863Z,-1.04
2022-12-02T17:12:32.930Z,-1.01
2022-12-02T17:15:00.561Z,-0.99
2022-12-02T17:17:45.240Z,-1.00
2022-12-02T17:20:13.823Z,-0.96
2022-12-02T17:22:40.859Z,-1.01
2022-12-02T17:25:09.433Z,-1.02
2022-12-02T17:27:36.621Z,-1.09
2022-12-02T17:30:04.185Z,-1.15
2022-12-02T17:32:31.498Z,-1.18
2022-12-02T17:34:58.837Z,-1.18
2022-12-02T17:37:26.876Z,-1.16
2022-12-02T17:39:55.104Z,-1.13
2022-12-02T17:42:22.601Z,-1.13
2022-12-02T17:44:51.674Z,-1.09
2022-12-02T17:47:20.219Z,-1.11
2022-12-02T17:49:47.839Z,-1.13
2022-12-02T17:52:20.192Z,-1.13
2022-12-02T17:54:47.764Z,-1.16
2022-12-02T17:57:15.806Z,-1.19
2022-12-02T17:59:43.657Z,-1.25
2022-12-02T18:02:11.754Z,-1.24
2022-12-02T18:04:44.744Z,-1.24
2022-12-02T18:07:12.551Z,-1.26
2022-12-02T18:09:40.395Z,-1.27
2022-12-02T18:12:08.498Z,-1.25
2022-12-02T18:14:37.080Z,-1.25
2022-12-02T18:17:08.633Z,-1.28
2022-12-02T18:19:36.964Z,-1.44
2022-12-02T18:22:03.979Z,-1.43
2022-12-02T18:24:32.118Z,-1.37
2022-12-02T18:27:00.106Z,-1.29
2022-12-02T18:29:27.605Z,-1.28
2022-12-02T18:31:55.338Z,-1.33
2022-12-02T18:34:25.409Z,-1.38
2022-12-02T18:36:54.159Z,-1.33
2022-12-02T18:39:21.341Z,-1.30
2022-12-02T18:41:48.686Z,-1.32
2022-12-02T18:44:15.742Z,-1.34
2022-12-02T18:46:43.667Z,-1.35
2022-12-02T18:49:11.163Z,-1.38
2022-12-02T18:51:38.349Z,-1.41
2022-12-02T18:54:05.609Z,-1.56
2022-12-02T18:56:34.159Z,-1.50
2022-12-02T18:59:11.366Z,-1.47
2022-12-02T19:01:44.886Z,-1.79
2022-12-02T19:04:14.136Z,-1.80
2022-12-02T19:06:43.549Z,-1.79
2022-12-02T19:09:12.753Z,-1.68
2022-12-02T19:11:43.155Z,-1.68
2022-12-02T19:14:12.749Z,-1.84
2022-12-02T19:16:40.280Z,-1.91
2022-12-02T19:19:08.232Z,-1.84
2022-12-02T19:21:35.600Z,-1.73
2022-12-02T19:24:02.849Z,-1.67
2022-12-02T19:26:29.886Z,-1.62
2022-12-02T19:28:57.685Z,-1.60
2022-12-02T19:31:25.034Z,-1.58
2022-12-02T19:33:53.225Z,-1.58
2022-12-02T19:36:21.126Z,-1.61
2022-12-02T19:38:49.650Z,-1.60
2022-12-02T19:41:18.616Z,-1.64
2022-12-02T19:43:46.032Z,-1.68
2022-12-02T19:46:13.197Z,-1.71
2022-12-02T19:48:41.012Z,-1.66
2022-12-02T19:51:09.642Z,-1.65
2022-12-02T19:53:37.851Z,-1.60
2022-12-02T19:56:05.230Z,-1.58
2022-12-02T19:58:32.659Z,-1.62
2022-12-02T20:00:59.895Z,-1.66
2022-12-02T20:03:27.055Z,-1.65
2022-12-02T20:05:55.462Z,-1.60
2022-12-02T20:08:22.872Z,-1.58
2022-12-02T20:10:49.907Z,-1.57
2022-12-02T20:13:17.962Z,-1.53
2022-12-02T20:15:45.075Z,-1.54
2022-12-02T20:18:12.403Z,-1.51
2022-12-02T20:20:39.474Z,-1.47
2022-12-02T20:23:06.441Z,-1.52
2022-12-02T20:25:33.653Z,-1.54
2022-12-02T20:28:00.792Z,-1.54
2022-12-02T20:30:27.917Z,-1.55
2022-12-02T20:32:54.973Z,-1.56
2022-12-02T20:35:22.170Z,-1.59
2022-12-02T20:37:49.286Z,-1.59
2022-12-02T20:40:17.623Z,-1.59
2022-12-02T20:42:44.757Z,-1.58
2022-12-02T20:45:13.841Z,-1.57
2022-12-02T20:47:41.485Z,-1.56
2022-12-02T20:50:09.760Z,-1.64
2022-12-02T20:52:36.916Z,-1.62
2022-12-02T20:55:06.732Z,-1.67
2022-12-02T20:57:33.828Z,-1.63
2022-12-02T21:00:01.126Z,-1.64
2022-12-02T21:02:28.477Z,-1.64
2022-12-02T21:04:55.874Z,-1.67
2022-12-02T21:07:22.994Z,-1.68
2022-12-02T21:09:50.253Z,-1.67
2022-12-02T21:12:17.301Z,-1.65
2022-12-02T21:14:44.242Z,-1.67
2022-12-02T21:17:11.467Z,-1.67
2022-12-02T21:19:38.935Z,-1.64
2022-12-02T21:22:06.159Z,-1.63
2022-12-02T21:24:35.401Z,-1.63
2022-12-02T21:27:02.559Z,-1.72
2022-12-02T21:29:30.917Z,-1.71
2022-12-02T21:31:57.950Z,-1.67
2022-12-02T21:34:25.217Z,-1.68
2022-12-02T21:36:52.336Z,-1.78
2022-12-02T21:39:19.349Z,-1.78
2022-12-02T21:41:46.500Z,-1.71
2022-12-02T21:44:13.811Z,-1.63
2022-12-02T21:46:40.885Z,-1.61
2022-12-02T21:49:08.019Z,-1.71
2022-12-02T21:51:34.962Z,-1.83
2022-12-02T21:54:02.061Z,-1.81
2022-12-02T21:56:34.831Z,-1.76
2022-12-02T21:59:03.759Z,-1.79
2022-12-02T22:01:43.585Z,-1.84
2022-12-02T22:04:13.743Z,-1.79
2022-12-02T22:06:41.370Z,-1.78
2022-12-02T22:09:08.581Z,-1.80
2022-12-02T22:11:36.476Z,-1.83
2022-12-02T22:14:04.781Z,-1.89
2022-12-02T22:16:32.455Z,-1.96
2022-12-02T22:19:00.047Z,-1.93
2022-12-02T22:21:27.397Z,-1.89
2022-12-02T22:23:54.331Z,-1.98
2022-12-02T22:26:21.580Z,-1.95
2022-12-02T22:28:48.781Z,-1.91
2022-12-02T22:31:16.037Z,-1.93
2022-12-02T22:33:43.235Z,-2.01
2022-12-02T22:36:10.339Z,-2.03
2022-12-02T22:38:37.423Z,-1.97
2022-12-02T22:41:04.851Z,-1.93
2022-12-02T22:43:32.080Z,-1.90
2022-12-02T22:45:59.128Z,-1.89
2022-12-02T22:48:26.305Z,-1.96
2022-12-02T22:50:53.299Z,-1.94
2022-12-02T22:53:20.447Z,-1.94
2022-12-02T22:55:47.378Z,-1.99
2022-12-02T22:58:14.482Z,-2.02
2022-12-02T23:00:42.001Z,-2.16
2022-12-02T23:03:09.204Z,-2.16
2022-12-02T23:05:36.443Z,-2.25
2022-12-02T23:08:03.959Z,-2.35
2022-12-02T23:10:32.323Z,-2.35
2022-12-02T23:12:59.262Z,-2.27
2022-12-02T23:15:41.906Z,-2.22
2022-12-02T23:18:09.150Z,-2.25
2022-12-02T23:20:36.584Z,-2.20
2022-12-02T23:23:03.844Z,-2.14
2022-12-02T23:25:30.944Z,-2.14
2022-12-02T23:27:57.942Z,-2.19
2022-12-02T23:30:29.265Z,-2.16
2022-12-02T23:33:00.007Z,-2.16
2022-12-02T23:35:28.004Z,-2.19
2022-12-02T23:37:54.984Z,-2.18
2022-12-02T23:40:22.230Z,-2.14
2022-12-02T23:42:49.200Z,-2.16
2022-12-02T23:45:16.273Z,-2.29
2022-12-02T23:47:43.367Z,-2.25
2022-12-02T23:50:11.139Z,-2.23
2022-12-02T23:52:38.402Z,-2.19
2022-12-02T23:55:06.006Z,-2.17
2022-12-02T23:57:33.303Z,-2.09
